Time;durP1;ratioP1;P1;durP2;ratioP2;P2;SDS_P1;SDS_P2;PMS_P1;PMS_P2;Temp;Humidity;BMP_temperature;BMP_pressure;BME280_temperature;BME280_humidity;BME280_pressure;Samples;Min_cycle;Max_cycle;Signal;HPM_P1;HPM_P2
2023/10/02 00:02:05;;;;;;;2.10;0.60;;;;;;;15.09;95.59;99019.28;5007570;28;20367;-56
2023/10/02 00:04:35;;;;;;;1.50;0.50;;;;;;;14.97;93.79;99024.34;4996402;28;20355;-56
2023/10/02 00:07:09;;;;;;;3.47;0.70;;;;;;;14.99;94.73;99023.34;5006245;28;20346;-57
2023/10/02 00:09:41;;;;;;;2.23;0.50;;;;;;;15.05;95.27;99019.50;4990435;28;20806;-57
2023/10/02 00:12:11;;;;;;;3.27;0.83;;;;;;;15.14;94.52;99015.56;4996914;28;20336;-58
2023/10/02 00:14:43;;;;;;;4.23;0.80;;;;;;;15.31;94.33;99018.09;5006906;28;20276;-57
2023/10/02 00:17:16;;;;;;;3.60;0.80;;;;;;;15.42;94.63;99020.97;4997300;28;20295;-57
2023/10/02 00:19:49;;;;;;;4.43;0.80;;;;;;;15.25;95.22;98976.31;5007399;28;20693;-57
2023/10/02 00:22:38;;;;;;;3.83;1.03;;;;;;;15.38;94.62;99008.94;4996294;28;20367;-57
2023/10/02 00:25:16;;;;;;;1.77;0.85;;;;;;;15.35;94.93;99019.63;4999061;28;20804;-57
2023/10/02 00:27:50;;;;;;;5.05;0.77;;;;;;;15.40;95.63;99033.38;5006625;28;20061;-58
2023/10/02 00:30:22;;;;;;;3.97;1.00;;;;;;;15.44;96.30;99034.91;4996608;28;20088;-56
2023/10/02 00:32:55;;;;;;;3.93;0.70;;;;;;;15.46;96.94;99025.13;5006316;28;20288;-59
2023/10/02 00:35:30;;;;;;;1.57;0.77;;;;;;;15.46;96.56;99027.75;4996617;28;20276;-58
2023/10/02 00:38:00;;;;;;;4.80;0.87;;;;;;;15.46;96.32;99022.50;5008305;28;20626;-57
2023/10/02 00:40:31;;;;;;;1.70;0.60;;;;;;;15.51;94.63;99016.97;4996426;28;20679;-57
2023/10/02 00:43:33;;;;;;;1.83;0.87;;;;;;;15.65;93.65;99021.44;5021907;28;20777;-56
2023/10/02 00:45:59;;;;;;;1.20;0.77;;;;;;;15.85;94.32;99023.84;5005247;28;20311;-60
2023/10/02 00:48:33;;;;;;;4.20;0.80;;;;;;;15.92;92.44;99021.69;5007945;28;20282;-57
2023/10/02 00:51:06;;;;;;;2.27;0.80;;;;;;;15.91;90.34;99023.47;5025797;28;20279;-58
2023/10/02 00:53:45;;;;;;;2.33;0.60;;;;;;;15.93;90.41;99020.75;4995494;28;20284;-59
2023/10/02 00:56:21;;;;;;;3.63;0.60;;;;;;;16.10;90.94;99017.13;4996182;28;20281;-59
2023/10/02 00:58:58;;;;;;;2.87;0.80;;;;;;;16.09;90.89;99013.63;5006024;28;20280;-58
2023/10/02 01:01:30;;;;;;;2.33;0.70;;;;;;;16.05;90.52;98982.28;5015642;28;20303;-57
2023/10/02 01:04:11;;;;;;;2.37;0.70;;;;;;;16.44;91.46;99017.75;5025260;28;20279;-58
2023/10/02 01:07:04;;;;;;;1.17;0.40;;;;;;;16.42;88.77;99001.19;5014824;28;20286;-59
2023/10/02 01:09:35;;;;;;;2.03;0.40;;;;;;;16.35;86.53;99012.09;4994589;28;20284;-61
2023/10/02 01:12:10;;;;;;;1.17;0.40;;;;;;;16.16;85.48;99016.78;5005136;28;20307;-57
2023/10/02 01:14:50;;;;;;;0.97;0.60;;;;;;;16.03;86.08;99011.38;4995237;28;20762;-59
2023/10/02 01:17:23;;;;;;;0.80;0.40;;;;;;;15.94;87.48;99002.22;4995023;28;20922;-58
2023/10/02 01:19:57;;;;;;;1.60;0.57;;;;;;;15.81;89.34;99006.50;5005538;28;20802;-59
2023/10/02 01:22:28;;;;;;;3.47;0.70;;;;;;;15.82;90.43;99008.19;4976472;28;20781;-60
2023/10/02 01:25:12;;;;;;;2.30;1.00;;;;;;;15.80;91.55;99009.22;4986529;28;20843;-60
2023/10/02 01:27:48;;;;;;;3.87;1.10;;;;;;;15.77;93.56;98999.72;4976055;28;20281;-57
2023/10/02 01:30:20;;;;;;;2.47;0.80;;;;;;;15.78;93.54;99006.69;4976205;28;20292;-57
2023/10/02 01:35:37;;;;;;;3.40;0.87;;;;;;;15.79;93.57;99018.91;4992914;28;20295;-60
2023/10/02 01:38:14;;;;;;;5.07;1.03;;;;;;;15.41;93.71;98935.03;4997768;28;20280;-59
2023/10/02 01:40:48;;;;;;;3.63;1.37;;;;;;;15.84;94.00;98995.78;5025359;28;20267;-56
2023/10/02 01:43:22;;;;;;;1.00;0.50;;;;;;;15.96;94.14;99004.75;5014369;28;20287;-58
2023/10/02 01:45:56;;;;;;;3.37;0.70;;;;;;;15.92;93.45;99009.34;5024810;28;20298;-57
2023/10/02 01:48:41;;;;;;;1.10;0.57;;;;;;;15.42;92.37;98952.53;5014358;28;20276;-61
2023/10/02 01:51:25;;;;;;;1.27;0.50;;;;;;;15.68;91.78;98969.47;5014015;28;20358;-58
2023/10/02 01:53:57;;;;;;;1.87;0.50;;;;;;;16.03;92.00;99010.53;5023696;28;20754;-58
2023/10/02 01:56:31;;;;;;;3.87;0.73;;;;;;;16.05;91.00;99011.28;5014062;28;20276;-58
2023/10/02 01:59:09;;;;;;;3.20;0.40;;;;;;;16.04;89.29;99012.22;5024803;28;20736;-57
2023/10/02 02:01:51;;;;;;;;;;;;;;;15.98;88.56;99002.06;4995987;28;20307;-57
2023/10/02 02:04:24;;;;;;;4.33;0.67;;;;;;;15.84;87.50;99010.75;4994885;28;20248;-58
2023/10/02 02:06:56;;;;;;;2.97;0.50;;;;;;;15.58;88.68;98972.72;5005045;28;20354;-57
2023/10/02 02:09:30;;;;;;;2.80;0.40;;;;;;;15.41;87.69;98942.94;4975667;28;20364;-58
2023/10/02 02:12:06;;;;;;;1.60;0.50;;;;;;;15.99;87.37;98998.47;4985181;28;20280;-59
2023/10/02 02:14:41;;;;;;;1.07;0.37;;;;;;;16.23;87.78;99001.44;4975031;28;20379;-58
2023/10/02 02:17:12;;;;;;;2.53;0.40;;;;;;;16.38;85.49;98996.09;4975132;28;20759;-57
2023/10/02 02:19:48;;;;;;;2.43;0.40;;;;;;;16.52;85.06;98991.75;4985640;28;20295;-60
2023/10/02 02:22:23;;;;;;;4.03;0.50;;;;;;;16.37;83.34;98965.41;4975438;28;20285;-58
2023/10/02 02:24:54;;;;;;;1.77;0.37;;;;;;;16.34;83.00;98897.03;4984974;28;20281;-58
2023/10/02 02:27:27;;;;;;;2.00;0.40;;;;;;;16.93;81.86;98959.38;4975106;28;20380;-58
2023/10/02 02:29:59;;;;;;;2.73;0.60;;;;;;;17.01;81.85;98978.19;4984820;28;20607;-59
2023/10/02 02:32:44;;;;;;;1.57;0.40;;;;;;;16.96;81.70;98967.09;4975318;28;20273;-60
2023/10/02 02:35:15;;;;;;;2.03;0.40;;;;;;;16.81;81.39;98969.75;4975251;28;20277;-61
2023/10/02 02:37:45;;;;;;;2.60;0.40;;;;;;;16.06;81.30;98879.44;4985321;28;20709;-58
2023/10/02 02:40:26;;;;;;;3.50;0.50;;;;;;;16.43;81.69;98965.97;4975649;28;20375;-58
2023/10/02 02:43:11;;;;;;;0.40;0.30;;;;;;;16.27;82.44;98961.63;4984140;28;20284;-60
2023/10/02 02:45:41;;;;;;;1.43;0.40;;;;;;;16.16;82.78;98964.91;4975232;28;20383;-59
2023/10/02 02:48:12;;;;;;;0.53;0.30;;;;;;;16.22;83.75;98955.78;4974696;28;20281;-57
2023/10/02 02:50:43;;;;;;;4.23;0.43;;;;;;;16.28;85.71;98958.06;4998205;28;20276;-59
2023/10/02 02:53:23;;;;;;;0.63;0.40;;;;;;;16.28;84.25;98950.16;4994301;28;20300;-59
2023/10/02 02:56:14;;;;;;;3.50;0.40;;;;;;;16.26;84.08;98944.13;5004135;28;20292;-58
2023/10/02 02:58:48;;;;;;;0.93;0.40;;;;;;;16.30;81.52;98950.91;5007406;28;20382;-62
2023/10/02 03:01:23;;;;;;;2.33;0.60;;;;;;;16.29;82.94;98932.53;5016293;28;20760;-57
2023/10/02 03:03:55;;;;;;;1.43;0.60;;;;;;;16.41;82.66;98936.22;5027482;28;20275;-58
2023/10/02 03:06:27;;;;;;;3.47;0.60;;;;;;;16.19;82.43;98900.63;5016977;28;20291;-61
2023/10/02 03:08:58;;;;;;;2.73;0.50;;;;;;;16.27;83.42;98908.91;5012325;28;20354;-60
2023/10/02 03:11:28;;;;;;;3.10;0.87;;;;;;;16.33;82.87;98940.16;4998424;28;20359;-57
2023/10/02 03:14:13;;;;;;;3.07;1.00;;;;;;;16.22;82.85;98931.22;5008316;28;20280;-57
2023/10/02 03:16:45;;;;;;;2.17;0.60;;;;;;;16.21;83.41;98932.16;4997565;28;20388;-58
2023/10/02 03:19:16;;;;;;;1.83;0.60;;;;;;;16.20;85.56;98926.06;4997646;28;20627;-59
2023/10/02 03:21:47;;;;;;;3.10;0.97;;;;;;;16.17;86.52;98928.84;5007744;28;20771;-57
2023/10/02 03:24:19;;;;;;;2.67;0.83;;;;;;;16.17;84.75;98924.44;4997929;28;20378;-58
2023/10/02 03:26:52;;;;;;;3.10;0.70;;;;;;;16.02;80.79;98913.97;5007804;28;21049;-60
2023/10/02 03:29:25;;;;;;;3.07;0.80;;;;;;;16.10;79.39;98922.25;4997726;28;20967;-58
2023/10/02 03:31:57;;;;;;;2.30;0.50;;;;;;;16.40;77.42;98924.84;5008390;28;20284;-58
2023/10/02 03:34:29;;;;;;;1.13;0.60;;;;;;;16.76;77.79;98903.22;4978685;28;20689;-58
2023/10/02 03:37:08;;;;;;;0.50;0.40;;;;;;;17.15;73.65;98917.47;5003518;28;20320;-57
2023/10/02 03:42:31;;;;;;;3.03;0.68;;;;;;;17.49;70.92;98912.59;5016702;28;20349;-56
2023/10/02 03:45:04;;;;;;;0.37;0.20;;;;;;;17.31;68.73;98908.53;5027006;28;20140;-58
2023/10/02 03:47:35;;;;;;;0.77;0.20;;;;;;;16.92;66.37;98904.91;5016201;28;20286;-57
2023/10/02 03:50:12;;;;;;;1.33;0.37;;;;;;;16.60;68.64;98889.31;5026870;28;20287;-58
2023/10/02 03:53:03;;;;;;;2.60;0.40;;;;;;;16.56;69.65;98906.25;5016955;28;20298;-58
2023/10/02 03:55:33;;;;;;;6.93;0.40;;;;;;;16.52;69.60;98896.84;5015873;28;20346;-55
2023/10/02 03:58:04;;;;;;;3.30;0.60;;;;;;;16.59;70.62;98898.16;5026257;28;20371;-58
2023/10/02 04:00:43;;;;;;;4.27;0.70;;;;;;;16.61;70.53;98896.28;5016061;28;21090;-59
2023/10/02 04:03:14;;;;;;;2.78;0.80;;;;;;;16.65;73.05;98897.78;5016409;28;20300;-60
2023/10/02 04:05:45;;;;;;;4.40;1.10;;;;;;;16.66;73.38;98903.91;5025467;28;20087;-59
2023/10/02 04:08:21;;;;;;;2.27;0.80;;;;;;;16.63;72.30;98904.94;5006253;28;20272;-58
2023/10/02 04:10:56;;;;;;;2.97;0.87;;;;;;;16.60;73.12;98899.88;5007527;28;20397;-57
2023/10/02 04:13:32;;;;;;;1.63;0.60;;;;;;;16.62;73.30;98897.94;4997552;28;20388;-56
2023/10/02 04:19:02;;;;;;;3.40;0.80;;;;;;;16.52;72.12;98894.19;4968126;28;20694;-57
2023/10/02 04:21:33;;;;;;;1.10;0.70;;;;;;;16.50;72.61;98896.09;4985231;28;20312;-56
2023/10/02 04:24:09;;;;;;;5.80;1.50;;;;;;;16.52;73.88;98891.56;4987311;28;20288;-58
2023/10/02 04:26:41;;;;;;;6.40;2.07;;;;;;;16.50;71.36;98893.44;4989686;28;20284;-58
2023/10/02 04:29:25;;;;;;;3.43;1.60;;;;;;;16.39;71.01;98887.06;4997038;28;20312;-59
2023/10/02 04:32:12;;;;;;;3.63;1.10;;;;;;;16.35;70.28;98882.94;5006761;28;20280;-60
2023/10/02 04:34:50;;;;;;;2.47;0.80;;;;;;;16.28;70.33;98876.34;5001605;28;20371;-58
2023/10/02 04:37:20;;;;;;;2.20;0.80;;;;;;;16.37;70.24;98883.69;5016149;28;20831;-58
2023/10/02 04:40:13;;;;;;;3.55;0.90;;;;;;;16.37;69.65;98893.38;5026152;28;20056;-58
2023/10/02 04:43:19;;;;;;;2.80;0.83;;;;;;;16.33;69.22;98887.44;4996009;28;20073;-57
2023/10/02 04:45:52;;;;;;;3.83;0.93;;;;;;;16.17;68.67;98881.41;4996316;28;20395;-57
2023/10/02 04:48:27;;;;;;;7.33;1.10;;;;;;;16.15;67.84;98885.97;4996176;28;20288;-62
2023/10/02 04:50:56;;;;;;;3.47;1.00;;;;;;;16.14;67.12;98892.16;5006965;28;20754;-61
2023/10/02 04:53:28;;;;;;;4.30;0.98;;;;;;;16.16;68.27;98898.19;4996799;28;20359;-61
2023/10/02 04:56:21;;;;;;;5.50;0.60;;;;;;;16.19;69.76;98884.81;5006841;28;20085;-58
2023/10/02 04:58:57;;;;;;;2.90;0.93;;;;;;;16.21;71.07;98890.84;5025357;28;20283;-60
2023/10/02 05:01:41;;;;;;;7.77;1.37;;;;;;;16.06;71.82;98865.44;5015801;28;20260;-61
2023/10/02 05:04:18;;;;;;;4.33;1.43;;;;;;;16.07;74.35;98859.22;5014818;28;20294;-59
2023/10/02 05:06:55;;;;;;;8.57;1.50;;;;;;;16.20;73.28;98904.97;5025185;28;20287;-59
2023/10/02 05:09:38;;;;;;;6.83;1.03;;;;;;;16.15;72.25;98904.41;4996278;28;20386;-57
2023/10/02 05:12:08;;;;;;;2.50;0.70;;;;;;;16.03;71.47;98897.25;4996873;28;20287;-58
2023/10/02 05:14:48;;;;;;;3.23;0.90;;;;;;;15.87;71.16;98906.03;5005456;28;21056;-58
2023/10/02 05:17:17;;;;;;;4.13;0.80;;;;;;;15.70;72.35;98904.44;4995890;28;20296;-59
2023/10/02 05:20:01;;;;;;;2.60;0.70;;;;;;;15.59;73.13;98912.06;5006033;28;20304;-58
2023/10/02 05:22:31;;;;;;;3.60;1.00;;;;;;;15.43;74.16;98900.75;4996153;28;20288;-59
2023/10/02 05:25:04;;;;;;;3.67;1.77;;;;;;;15.47;75.38;98908.34;5005004;28;20330;-61
2023/10/02 05:27:37;;;;;;;5.70;1.60;;;;;;;15.22;76.54;98876.50;4975746;28;20281;-57
2023/10/02 05:30:14;;;;;;;5.83;1.97;;;;;;;15.35;75.67;98930.16;4991248;28;20287;-59
2023/10/02 05:32:44;;;;;;;7.53;1.70;;;;;;;15.23;75.54;98941.38;5000195;28;20289;-57
2023/10/02 05:35:23;;;;;;;1.97;0.60;;;;;;;15.13;73.39;98942.81;4975786;28;20285;-56
2023/10/02 05:37:54;;;;;;;5.47;1.55;;;;;;;15.03;74.76;98940.69;4986341;28;20291;-59
2023/10/02 05:40:38;;;;;;;2.93;1.00;;;;;;;15.01;74.24;98934.66;4996010;28;20053;-61
2023/10/02 05:43:17;;;;;;;1.17;0.43;;;;;;;14.98;73.67;98926.13;4994795;28;20708;-59
2023/10/02 05:45:53;;;;;;;4.73;0.67;;;;;;;14.97;75.67;98925.25;5005738;28;20299;-59
2023/10/02 05:48:31;;;;;;;4.20;0.73;;;;;;;14.93;76.10;98923.75;4995092;28;20284;-60
2023/10/02 05:51:09;;;;;;;1.90;0.50;;;;;;;14.91;75.66;98928.22;5006034;28;20316;-58
2023/10/02 05:53:53;;;;;;;3.50;0.50;;;;;;;14.98;76.11;98926.13;5006787;28;20283;-58
2023/10/02 05:56:25;;;;;;;2.67;1.00;;;;;;;15.10;76.18;98931.53;5013813;28;20055;-59
2023/10/02 05:58:55;;;;;;;6.60;0.80;;;;;;;15.24;76.50;98927.25;5024411;28;20290;-60
2023/10/02 06:01:27;;;;;;;2.47;0.53;;;;;;;15.35;76.34;98921.38;5013896;28;20294;-60
2023/10/02 06:04:00;;;;;;;2.07;0.57;;;;;;;15.37;76.03;98923.00;5023905;28;20279;-59
2023/10/02 06:06:37;;;;;;;1.70;0.50;;;;;;;15.56;75.34;98914.03;4975796;28;20312;-59
2023/10/02 06:09:17;;;;;;;3.47;0.63;;;;;;;15.78;75.27;98927.69;5011444;28;20298;-57
2023/10/02 06:14:39;;;;;;;4.47;0.80;;;;;;;16.01;73.30;98920.19;5005369;28;20908;-58
2023/10/02 06:17:14;;;;;;;7.73;1.20;;;;;;;15.92;72.68;98922.41;5013678;28;20287;-59
2023/10/02 06:19:45;;;;;;;2.87;0.60;;;;;;;15.75;71.51;98909.44;5024018;28;20275;-60
2023/10/02 06:22:19;;;;;;;2.77;0.60;;;;;;;15.65;72.69;98924.91;5013514;28;20279;-59
2023/10/02 06:24:51;;;;;;;3.73;0.70;;;;;;;15.49;72.57;98930.19;5023626;28;20292;-60
2023/10/02 06:27:24;;;;;;;3.10;0.60;;;;;;;15.36;73.32;98925.72;5013427;28;20429;-59
2023/10/02 06:29:57;;;;;;;3.83;1.00;;;;;;;15.32;73.28;98925.03;5023653;28;20325;-57
2023/10/02 06:32:28;;;;;;;3.37;1.50;;;;;;;15.30;73.20;98921.63;5014135;28;20741;-59
2023/10/02 06:35:00;;;;;;;3.13;1.00;;;;;;;15.30;74.10;98937.44;5023833;28;20287;-60
2023/10/02 06:37:36;;;;;;;4.33;1.10;;;;;;;15.30;74.46;98937.44;5013949;28;20276;-60
2023/10/02 06:40:14;;;;;;;3.77;0.87;;;;;;;15.35;73.93;98932.78;5023556;28;20374;-58
2023/10/02 06:42:49;;;;;;;1.63;0.50;;;;;;;15.47;74.30;98924.16;5013457;28;20751;-59
2023/10/02 06:45:25;;;;;;;1.50;0.97;;;;;;;15.61;74.17;98940.94;4994520;28;20292;-57
2023/10/02 06:47:57;;;;;;;5.90;1.40;;;;;;;15.67;73.17;98932.69;5003964;28;20298;-59
2023/10/02 06:50:32;;;;;;;3.13;1.03;;;;;;;15.72;72.82;98933.28;4994391;28;20273;-60
2023/10/02 06:53:06;;;;;;;4.10;0.67;;;;;;;15.68;71.65;98922.06;5004494;28;20299;-59
2023/10/02 06:55:37;;;;;;;2.60;0.50;;;;;;;15.59;71.24;98932.28;4994563;28;20330;-58
2023/10/02 06:58:08;;;;;;;3.67;0.50;;;;;;;15.47;70.84;98923.31;4998384;28;20686;-59
2023/10/02 07:00:54;;;;;;;2.00;0.63;;;;;;;15.47;70.72;98916.25;5004363;28;20312;-60
2023/10/02 07:03:25;;;;;;;3.93;0.47;;;;;;;15.49;71.92;98911.75;4994865;28;20316;-59
2023/10/02 07:05:57;;;;;;;5.77;0.83;;;;;;;15.52;73.21;98916.88;5003797;28;20708;-62
2023/10/02 07:08:33;;;;;;;2.13;0.47;;;;;;;15.53;72.70;98918.56;4982288;28;20358;-59
2023/10/02 07:11:10;;;;;;;1.37;0.40;;;;;;;15.51;73.22;98920.41;4983092;28;20795;-57
2023/10/02 07:13:51;;;;;;;3.20;0.40;;;;;;;15.42;73.42;98920.94;4974382;28;20312;-59
2023/10/02 07:16:22;;;;;;;3.13;0.40;;;;;;;15.32;73.82;98917.16;4974838;28;20779;-59
2023/10/02 07:18:54;;;;;;;2.13;0.40;;;;;;;15.22;73.79;98929.97;4983650;28;20285;-60
2023/10/02 07:21:26;;;;;;;1.50;0.50;;;;;;;15.07;72.96;98923.78;4974063;28;20276;-59
2023/10/02 07:24:00;;;;;;;4.30;0.50;;;;;;;14.96;73.59;98934.09;4985833;28;20283;-62
2023/10/02 07:26:49;;;;;;;3.17;0.57;;;;;;;14.88;73.89;98928.41;4975413;28;20280;-57
2023/10/02 07:29:32;;;;;;;1.58;0.45;;;;;;;14.75;74.25;98932.63;4974751;28;20292;-62
2023/10/02 07:32:11;;;;;;;1.35;0.60;;;;;;;14.64;75.76;98934.06;4975618;28;20479;-60
2023/10/02 07:34:45;;;;;;;5.23;0.70;;;;;;;14.56;76.30;98938.88;4984783;28;20435;-57
2023/10/02 07:37:21;;;;;;;3.60;0.50;;;;;;;14.49;77.03;98932.22;4974497;28;20289;-59
2023/10/02 07:40:02;;;;;;;4.47;0.50;;;;;;;14.38;77.19;98937.22;4984042;28;20779;-63
2023/10/02 07:42:33;;;;;;;4.97;0.60;;;;;;;14.29;77.25;98932.44;4981477;28;20284;-61
2023/10/02 07:45:21;;;;;;;4.67;0.70;;;;;;;14.19;77.62;98932.09;5001881;28;20645;-58
2023/10/02 07:50:44;;;;;;;7.43;0.60;;;;;;;13.99;78.47;98919.97;5010475;28;20283;-57
2023/10/02 07:53:15;;;;;;;2.33;0.50;;;;;;;13.95;78.06;98929.81;5017146;28;20371;-59
2023/10/02 07:55:48;;;;;;;3.57;0.40;;;;;;;13.90;78.28;98946.72;5026795;28;20758;-58
2023/10/02 07:58:19;;;;;;;2.30;0.50;;;;;;;13.80;78.90;98938.44;5016603;28;20289;-60
2023/10/02 08:00:50;;;;;;;5.53;0.80;;;;;;;13.75;79.92;98933.47;5026417;28;20907;-58
2023/10/02 08:03:42;;;;;;;4.33;0.60;;;;;;;13.62;80.70;98937.59;5016795;28;20301;-60
2023/10/02 08:06:23;;;;;;;3.50;0.60;;;;;;;13.42;80.59;98940.38;5015267;28;20290;-59
2023/10/02 08:11:41;;;;;;;2.73;0.67;;;;;;;13.45;80.29;98940.22;4996172;28;20464;-62
2023/10/02 08:14:34;;;;;;;2.37;0.67;;;;;;;13.43;80.79;98952.56;4997077;28;20375;-59
2023/10/02 08:17:08;;;;;;;0.97;0.60;;;;;;;13.33;80.93;98937.28;5006761;28;20391;-57
2023/10/02 08:19:39;;;;;;;4.23;1.60;;;;;;;13.25;81.29;98928.88;5001847;28;20379;-60
2023/10/02 08:22:09;;;;;;;3.73;0.50;;;;;;;13.19;81.90;98928.34;5016257;28;20322;-59
2023/10/02 08:24:40;;;;;;;4.27;0.73;;;;;;;13.13;82.35;98925.09;5026459;28;20275;-60
2023/10/02 08:27:14;;;;;;;4.60;0.80;;;;;;;13.10;82.30;98925.25;5015829;28;20370;-59
2023/10/02 08:29:44;;;;;;;2.70;0.90;;;;;;;13.07;82.29;98929.78;5025611;28;20280;-62
2023/10/02 08:32:28;;;;;;;1.93;0.77;;;;;;;13.03;82.01;98923.84;5015695;28;20374;-59
2023/10/02 08:35:13;;;;;;;1.20;0.33;;;;;;;13.02;82.37;98931.78;5026313;28;20295;-61
2023/10/02 08:37:44;;;;;;;3.22;0.60;;;;;;;13.05;81.62;98936.88;4996506;28;20298;-60
2023/10/02 08:40:15;;;;;;;8.10;1.00;;;;;;;13.05;81.86;98934.25;4997144;28;20472;-59
2023/10/02 08:42:48;;;;;;;3.85;0.68;;;;;;;12.98;81.73;98924.97;5006365;28;20631;-65
2023/10/02 08:45:20;;;;;;;4.20;0.80;;;;;;;12.96;82.08;98917.19;4997211;28;20392;-65
2023/10/02 08:47:52;;;;;;;5.97;0.60;;;;;;;12.89;81.82;98911.38;5006585;28;20049;-60
2023/10/02 08:50:22;;;;;;;2.87;0.70;;;;;;;12.93;82.57;98923.44;4996982;28;20127;-61
2023/10/02 08:52:53;;;;;;;4.63;1.03;;;;;;;12.86;81.94;98913.31;5006603;28;20284;-61
2023/10/02 08:55:35;;;;;;;4.17;1.10;;;;;;;12.82;81.96;98909.97;4996468;28;20284;-62
2023/10/02 08:58:19;;;;;;;3.70;0.60;;;;;;;12.80;82.39;98911.81;5006247;28;20292;-62
2023/10/02 09:04:21;;;;;;;2.50;0.70;;;;;;;12.76;82.68;98914.66;5009650;28;20148;-59
2023/10/02 09:07:44;;;;;;;3.60;0.70;;;;;;;12.75;82.34;98916.41;5026618;28;20056;-61
2023/10/02 09:11:09;;;;;;;2.38;0.93;;;;;;;12.58;82.23;98870.06;4990220;28;20053;-60
2023/10/02 09:18:03;;;;;;;4.78;1.33;;;;;;;12.81;82.29;98892.56;5016086;28;20055;-62
2023/10/02 09:24:22;;;;;;;2.45;0.60;;;;;;;12.80;82.12;98890.84;5018371;28;20052;-62
2023/10/02 09:26:57;;;;;;;2.15;0.60;;;;;;;12.68;82.24;98865.19;5029727;28;20065;-60
2023/10/02 09:29:30;;;;;;;3.75;0.60;;;;;;;12.78;82.44;98887.47;5019795;28;20058;-62
2023/10/02 09:32:03;;;;;;;5.88;0.90;;;;;;;12.73;83.09;98895.53;5030625;28;20600;-63
2023/10/02 09:35:11;;;;;;;5.57;1.17;;;;;;;12.68;82.80;98901.88;5019560;28;20273;-62
2023/10/02 09:38:13;;;;;;;4.30;0.77;;;;;;;12.60;83.54;98904.03;5018765;28;20138;-62
2023/10/02 09:40:58;;;;;;;3.88;0.95;;;;;;;12.54;84.08;98904.31;5029980;28;20615;-61
2023/10/02 09:43:31;;;;;;;3.88;1.17;;;;;;;12.57;85.36;98917.28;5000455;28;20054;-62
2023/10/02 09:46:07;;;;;;;4.05;1.33;;;;;;;12.48;86.86;98906.31;5010098;28;20052;-63
2023/10/02 09:49:07;;;;;;;6.25;1.50;;;;;;;12.55;89.24;98929.59;5005587;28;20140;-61
2023/10/02 09:52:09;;;;;;;5.00;1.60;;;;;;;12.52;91.44;98930.59;5009287;28;20064;-63
2023/10/02 09:54:47;;;;;;;8.77;1.80;;;;;;;12.40;92.93;98924.13;5008860;28;20056;-64
2023/10/02 09:57:25;;;;;;;5.45;1.88;;;;;;;12.38;94.02;98941.69;5009027;28;20057;-61
2023/10/02 09:59:57;;;;;;;5.70;1.75;;;;;;;12.26;94.86;98942.25;5022401;28;20037;-63
2023/10/02 10:02:50;;;;;;;7.95;1.90;;;;;;;12.15;95.96;98936.63;5019481;28;20046;-63
2023/10/02 10:08:28;;;;;;;6.45;1.73;;;;;;;11.96;97.87;98937.44;5019715;28;20410;-61
2023/10/02 10:11:10;;;;;;;4.45;1.38;;;;;;;11.96;98.76;98949.69;5029048;28;20063;-64
2023/10/02 10:13:49;;;;;;;5.35;1.15;;;;;;;11.95;99.59;98943.56;5009500;28;20106;-63
2023/10/02 10:16:40;;;;;;;2.90;1.30;;;;;;;11.84;100.00;98935.31;5007647;28;20129;-62
2023/10/02 10:19:30;;;;;;;13.02;1.35;;;;;;;11.84;100.00;98953.63;5002074;28;20061;-60
2023/10/02 10:22:04;;;;;;;3.80;1.10;;;;;;;11.74;100.00;98954.94;5015344;28;20555;-65
2023/10/02 10:24:58;;;;;;;6.97;1.30;;;;;;;11.49;100.00;98918.47;5009983;28;20076;-64
2023/10/02 10:28:05;;;;;;;6.30;1.40;;;;;;;11.58;100.00;98954.69;5008762;28;20561;-64
2023/10/02 10:30:43;;;;;;;6.47;1.58;;;;;;;11.54;100.00;98951.38;4999041;28;20052;-63
2023/10/02 10:34:12;;;;;;;5.50;1.10;;;;;;;11.56;100.00;98946.94;5004031;28;20458;-62
2023/10/02 10:36:47;;;;;;;4.32;1.17;;;;;;;11.61;100.00;98959.84;4921811;28;20051;-64
2023/10/02 10:40:40;;;;;;;5.18;1.08;;;;;;;11.56;100.00;98944.31;4918917;28;20082;-61
2023/10/02 10:43:05;;;;;;;4.38;1.00;;;;;;;11.55;100.00;98950.44;4928178;28;20137;-64
2023/10/02 10:45:38;;;;;;;2.78;1.25;;;;;;;11.52;100.00;98942.72;4927662;28;20055;-63
2023/10/02 10:48:22;;;;;;;8.77;1.20;;;;;;;11.50;100.00;98941.94;4929450;28;20058;-63
2023/10/02 10:51:01;;;;;;;2.42;0.80;;;;;;;11.19;100.00;98898.75;4936942;28;20053;-63
2023/10/02 10:53:32;;;;;;;2.20;1.05;;;;;;;11.41;100.00;98940.56;4926881;28;20224;-65
2023/10/02 10:56:06;;;;;;;3.10;1.00;;;;;;;11.39;100.00;98944.16;4937626;28;20047;-60
2023/10/02 10:58:40;;;;;;;2.17;0.65;;;;;;;11.32;100.00;98934.84;4910791;28;20061;-61
2023/10/02 11:01:16;;;;;;;2.80;0.98;;;;;;;11.26;100.00;98924.63;4919235;28;20051;-62
2023/10/02 11:03:54;;;;;;;4.60;0.82;;;;;;;11.27;100.00;98944.66;4925215;28;20063;-63
2023/10/02 11:06:26;;;;;;;1.98;0.70;;;;;;;11.17;100.00;98923.25;4928416;28;20062;-62
2023/10/02 11:09:13;;;;;;;2.78;0.70;;;;;;;11.22;100.00;98934.38;5015777;28;20044;-61
2023/10/02 11:11:51;;;;;;;3.17;0.60;;;;;;;11.24;100.00;98940.41;5004914;28;20464;-64
2023/10/02 11:14:37;;;;;;;3.83;1.08;;;;;;;11.23;100.00;98944.78;5018287;28;20059;-62
2023/10/02 11:17:11;;;;;;;3.72;0.70;;;;;;;11.19;100.00;98953.66;5019336;28;20869;-64
2023/10/02 11:19:50;;;;;;;2.55;0.55;;;;;;;11.10;100.00;98945.31;5029178;28;20143;-61
2023/10/02 11:22:22;;;;;;;4.40;0.90;;;;;;;11.15;100.00;98957.28;5021620;28;20110;-62
2023/10/02 11:28:00;;;;;;;6.07;1.13;;;;;;;11.00;100.00;98958.75;5010626;28;20064;-62
2023/10/02 11:30:34;;;;;;;3.20;0.98;;;;;;;10.90;100.00;98967.00;5014375;28;20098;-62
2023/10/02 11:33:07;;;;;;;1.73;0.77;;;;;;;10.92;100.00;98958.19;5032617;28;20045;-62
2023/10/02 11:35:41;;;;;;;3.63;0.95;;;;;;;10.86;100.00;98949.72;5019710;28;20053;-63
2023/10/02 11:38:18;;;;;;;1.65;0.68;;;;;;;10.87;100.00;98946.22;5017742;28;20065;-61
2023/10/02 11:40:52;;;;;;;2.15;0.60;;;;;;;10.88;100.00;98951.38;5029114;28;20098;-62
2023/10/02 11:43:28;;;;;;;1.80;0.60;;;;;;;10.94;100.00;98942.47;5017112;28;20057;-60
2023/10/02 11:46:18;;;;;;;1.75;0.65;;;;;;;10.97;100.00;98942.34;5026920;28;20056;-63
2023/10/02 11:49:01;;;;;;;2.00;0.70;;;;;;;10.98;100.00;98928.34;5026788;28;20052;-61
2023/10/02 11:51:35;;;;;;;4.15;0.60;;;;;;;11.06;100.00;98941.13;5016499;28;20059;-61
2023/10/02 11:54:09;;;;;;;1.65;0.77;;;;;;;10.97;100.00;98942.34;5027384;28;20479;-60
2023/10/02 11:56:39;;;;;;;1.65;0.63;;;;;;;10.98;100.00;98938.81;4997037;28;20160;-59
2023/10/02 11:59:14;;;;;;;2.95;0.70;;;;;;;10.99;100.00;98937.91;4997406;28;20060;-60
2023/10/02 12:01:51;;;;;;;4.43;1.00;;;;;;;10.90;100.00;98919.97;5005975;28;20049;-64
2023/10/02 12:04:26;;;;;;;3.92;0.70;;;;;;;10.95;100.00;98928.47;4999111;28;20558;-62
2023/10/02 12:06:57;;;;;;;3.97;0.77;;;;;;;10.98;100.00;98920.50;5026459;28;20130;-63
2023/10/02 12:09:28;;;;;;;1.52;0.52;;;;;;;10.99;100.00;98911.78;5009864;28;20566;-64
2023/10/02 12:12:01;;;;;;;2.95;0.65;;;;;;;11.02;100.00;98916.88;5023046;28;20502;-65
2023/10/02 12:14:32;;;;;;;5.43;0.90;;;;;;;10.96;100.00;98904.06;4997231;28;20061;-62
2023/10/02 12:17:04;;;;;;;2.17;0.50;;;;;;;10.99;100.00;98910.00;5006796;28;20055;-61
2023/10/02 12:19:40;;;;;;;6.45;0.63;;;;;;;10.77;100.00;98867.34;4999553;28;20063;-59
2023/10/02 12:22:10;;;;;;;1.48;0.45;;;;;;;11.04;100.00;98907.22;5015916;28;20063;-62
2023/10/02 12:24:46;;;;;;;3.25;0.60;;;;;;;11.02;100.00;98898.56;5026115;28;20132;-61
2023/10/02 12:27:18;;;;;;;3.17;0.50;;;;;;;11.02;100.00;98898.56;5016010;28;20106;-62
2023/10/02 12:29:50;;;;;;;2.33;0.50;;;;;;;11.07;100.00;98885.31;5025756;28;20072;-59
2023/10/02 12:32:23;;;;;;;2.05;0.55;;;;;;;11.10;100.00;98886.03;5015405;28;20080;-60
2023/10/02 12:34:54;;;;;;;4.05;0.57;;;;;;;11.14;100.00;98877.16;5026349;28;20062;-64
2023/10/02 12:37:26;;;;;;;12.85;1.13;;;;;;;11.10;100.00;98875.59;5015580;28;20147;-62
2023/10/02 12:40:11;;;;;;;2.97;0.60;;;;;;;11.14;100.00;98882.41;5025699;28;20071;-62
2023/10/02 12:42:42;;;;;;;2.80;0.60;;;;;;;11.16;100.00;98885.81;5002808;28;20041;-62
2023/10/02 12:45:14;;;;;;;4.53;0.82;;;;;;;11.14;100.00;98882.41;4996676;28;20369;-60
2023/10/02 12:47:46;;;;;;;3.70;0.73;;;;;;;11.14;100.00;98882.41;5006788;28;20115;-60
2023/10/02 12:50:18;;;;;;;3.55;0.73;;;;;;;11.17;100.00;98877.03;4997327;28;20080;-59
2023/10/02 12:52:49;;;;;;;3.53;0.63;;;;;;;11.21;100.00;98868.16;5007007;28;20053;-60